createdAt,value
2018-01-28T00:02:21.863Z,80.23
2018-01-28T00:04:52.065Z,80.68
2018-01-28T00:07:22.958Z,80.74
2018-01-28T00:09:53.178Z,81.04
2018-01-28T00:12:23.399Z,81.36
2018-01-28T00:14:53.586Z,81.89
2018-01-28T00:17:24.621Z,81.74
2018-01-28T00:19:55.292Z,82.01
2018-01-28T00:22:25.187Z,82.00
2018-01-28T00:24:55.162Z,82.75
2018-01-28T00:27:25.204Z,82.55
2018-01-28T00:29:55.914Z,82.92
2018-01-28T00:32:25.969Z,82.44
2018-01-28T00:34:55.949Z,82.81
2018-01-28T00:37:25.951Z,82.97
2018-01-28T00:39:55.925Z,83.14
2018-01-28T00:42:26.028Z,82.78
2018-01-28T00:44:56.960Z,82.80
2018-01-28T00:47:26.983Z,82.69
2018-01-28T00:49:57.640Z,82.48
2018-01-28T00:52:27.715Z,81.87
2018-01-28T00:54:57.826Z,82.18
2018-01-28T00:57:27.789Z,82.24
2018-01-28T00:59:57.747Z,81.82
2018-01-28T01:02:28.309Z,81.81
2018-01-28T01:04:58.238Z,81.86
2018-01-28T01:07:30.533Z,82.15
2018-01-28T01:10:01.128Z,82.30
2018-01-28T01:12:31.840Z,82.34
2018-01-28T01:15:01.944Z,82.12
2018-01-28T01:17:31.834Z,82.00
2018-01-28T01:20:01.853Z,82.06
2018-01-28T01:22:32.569Z,82.10
2018-01-28T01:25:02.472Z,81.92
2018-01-28T01:27:32.434Z,81.64
2018-01-28T01:30:02.213Z,81.54
2018-01-28T01:32:33.104Z,81.82
2018-01-28T01:35:03.048Z,81.45
2018-01-28T01:37:33.213Z,81.36
2018-01-28T01:40:03.161Z,81.52
2018-01-28T01:42:33.078Z,81.30
2018-01-28T01:45:03.230Z,80.98
2018-01-28T01:47:33.046Z,81.01
2018-01-28T01:50:02.944Z,81.26
2018-01-28T01:52:32.831Z,81.09
2018-01-28T01:55:02.771Z,80.97
2018-01-28T01:57:32.619Z,81.04
2018-01-28T02:00:03.363Z,80.97
2018-01-28T02:02:33.375Z,81.37
2018-01-28T02:05:04.479Z,81.74
2018-01-28T02:07:34.604Z,81.95
2018-01-28T02:10:04.901Z,81.82
2018-01-28T02:12:35.408Z,82.06
2018-01-28T02:15:06.391Z,82.08
2018-01-28T02:17:36.509Z,82.55
2018-01-28T02:20:06.656Z,82.84
2018-01-28T02:22:37.409Z,83.20
2018-01-28T02:25:08.532Z,83.09
2018-01-28T02:27:38.823Z,83.44
2018-01-28T02:30:09.085Z,82.92
2018-01-28T02:32:39.985Z,83.10
2018-01-28T02:35:10.218Z,82.99
2018-01-28T02:37:40.486Z,83.12
2018-01-28T02:40:10.756Z,83.18
2018-01-28T02:42:41.151Z,83.19
2018-01-28T02:45:11.400Z,83.10
2018-01-28T02:47:41.777Z,83.25
2018-01-28T02:50:13.173Z,83.21
2018-01-28T02:52:43.535Z,83.52
2018-01-28T02:55:13.758Z,83.48
2018-01-28T02:57:43.847Z,83.52
2018-01-28T03:00:14.016Z,83.55
2018-01-28T03:02:44.299Z,83.72
2018-01-28T03:05:14.614Z,83.15
2018-01-28T03:07:44.872Z,83.03
2018-01-28T03:10:15.100Z,83.03
2018-01-28T03:12:45.406Z,82.69
2018-01-28T03:15:15.705Z,82.85
2018-01-28T03:17:46.233Z,82.67
2018-01-28T03:20:16.671Z,82.74
2018-01-28T03:22:48.189Z,82.86
2018-01-28T03:25:18.992Z,82.69
2018-01-28T03:27:49.298Z,82.62
2018-01-28T03:30:19.540Z,83.04
2018-01-28T03:32:50.506Z,83.33
2018-01-28T03:35:21.685Z,83.17
2018-01-28T03:37:52.080Z,83.39
2018-01-28T03:40:23.206Z,83.29
2018-01-28T03:42:54.324Z,83.64
2018-01-28T03:45:24.636Z,83.71
2018-01-28T03:47:54.857Z,83.65
2018-01-28T03:50:25.079Z,83.73
2018-01-28T03:52:55.355Z,83.77
2018-01-28T03:55:25.985Z,83.71
2018-01-28T03:57:57.168Z,83.84
2018-01-28T04:00:27.560Z,84.13
2018-01-28T04:02:58.778Z,84.00
2018-01-28T04:05:29.088Z,84.33
2018-01-28T04:07:59.321Z,84.01
2018-01-28T04:10:29.640Z,84.34
2018-01-28T04:13:00.025Z,84.41
2018-01-28T04:15:30.310Z,84.24
2018-01-28T04:18:01.581Z,84.35
2018-01-28T04:20:31.827Z,84.29
2018-01-28T04:23:02.180Z,84.54
2018-01-28T04:25:32.417Z,84.91
2018-01-28T04:28:02.518Z,85.00
2018-01-28T04:30:32.602Z,84.82
2018-01-28T04:33:03.894Z,84.50
2018-01-28T04:35:34.496Z,84.55
2018-01-28T04:38:04.604Z,84.29
2018-01-28T04:40:34.858Z,84.36
2018-01-28T04:43:05.164Z,84.48
2018-01-28T04:45:35.390Z,84.49
2018-01-28T04:48:05.709Z,84.68
2018-01-28T04:50:35.857Z,84.67
2018-01-28T04:53:05.979Z,84.12
2018-01-28T04:55:36.289Z,84.12
2018-01-28T04:58:06.934Z,84.48
2018-01-28T05:00:37.673Z,84.52
2018-01-28T05:03:07.762Z,84.56
2018-01-28T05:05:37.850Z,84.24
2018-01-28T05:08:08.929Z,84.22
2018-01-28T05:10:39.053Z,84.13
2018-01-28T05:13:09.608Z,84.02
2018-01-28T05:15:40.187Z,84.06
2018-01-28T05:18:10.404Z,83.91
2018-01-28T05:20:41.564Z,83.88
2018-01-28T05:23:11.912Z,84.00
2018-01-28T05:25:42.202Z,83.76
2018-01-28T05:28:13.137Z,83.97
2018-01-28T05:30:44.771Z,84.05
2018-01-28T05:33:16.276Z,84.03
2018-01-28T05:35:46.407Z,84.27
2018-01-28T05:38:16.533Z,84.22
2018-01-28T05:40:46.906Z,84.45
2018-01-28T05:43:17.987Z,84.48
2018-01-28T05:45:48.155Z,84.28
2018-01-28T05:48:19.174Z,84.26
2018-01-28T05:50:49.352Z,84.70
2018-01-28T05:53:19.647Z,84.88
2018-01-28T05:55:50.711Z,84.54
2018-01-28T05:58:21.176Z,84.67
2018-01-28T06:00:51.328Z,84.75
2018-01-28T06:03:22.065Z,84.87
2018-01-28T06:05:52.651Z,85.17
2018-01-28T06:08:23.154Z,84.86
2018-01-28T06:10:53.443Z,84.92
2018-01-28T06:13:23.746Z,84.93
2018-01-28T06:15:54.217Z,84.95
2018-01-28T06:18:24.891Z,85.26
2018-01-28T06:20:55.071Z,85.22
2018-01-28T06:23:26.274Z,85.32
2018-01-28T06:25:56.543Z,85.33
2018-01-28T06:28:27.114Z,85.42
2018-01-28T06:30:57.581Z,85.52
2018-01-28T06:33:28.006Z,85.57
2018-01-28T06:35:58.270Z,85.42
2018-01-28T06:38:28.856Z,85.62
2018-01-28T06:41:01.126Z,85.67
2018-01-28T06:43:31.396Z,85.73
2018-01-28T06:46:01.673Z,85.57
2018-01-28T06:48:31.968Z,85.67
2018-01-28T06:51:02.305Z,85.75
2018-01-28T06:53:32.739Z,85.93
2018-01-28T06:56:03.253Z,85.96
2018-01-28T06:58:33.990Z,86.01
2018-01-28T07:01:04.550Z,85.88
2018-01-28T07:03:34.715Z,86.27
2018-01-28T07:06:05.232Z,86.13
2018-01-28T07:08:36.501Z,85.96
2018-01-28T07:11:06.683Z,86.09
2018-01-28T07:13:37.392Z,85.98
2018-01-28T07:16:08.222Z,85.79
2018-01-28T07:18:38.512Z,85.96
2018-01-28T07:21:08.768Z,86.13
2018-01-28T07:23:39.253Z,86.15
2018-01-28T07:26:09.396Z,86.15
2018-01-28T07:28:39.636Z,85.98
2018-01-28T07:31:09.999Z,86.23
2018-01-28T07:33:40.941Z,86.21
2018-01-28T07:36:11.939Z,86.51
2018-01-28T07:38:42.109Z,86.24
2018-01-28T07:41:12.455Z,86.52
2018-01-28T07:43:42.765Z,86.39
2018-01-28T07:46:13.745Z,85.91
2018-01-28T07:48:43.835Z,86.18
2018-01-28T07:51:14.952Z,86.38
2018-01-28T07:53:45.525Z,86.20
2018-01-28T07:56:15.680Z,86.25
2018-01-28T07:58:45.964Z,86.05
2018-01-28T08:01:16.287Z,86.30
2018-01-28T08:03:47.190Z,86.27
2018-01-28T08:06:17.493Z,86.32
2018-01-28T08:08:47.945Z,86.32
2018-01-28T08:11:18.444Z,86.37
2018-01-28T08:13:49.077Z,86.39
2018-01-28T08:16:19.620Z,86.32
2018-01-28T08:18:50.101Z,86.04
2018-01-28T08:21:21.234Z,86.46
2018-01-28T08:23:52.285Z,86.48
2018-01-28T08:26:23.458Z,86.58
2018-01-28T08:28:54.016Z,86.37
2018-01-28T08:31:24.418Z,86.60
2018-01-28T08:33:54.525Z,86.47
2018-01-28T08:36:25.524Z,86.64
2018-01-28T08:38:55.484Z,85.31
2018-01-28T08:41:26.003Z,85.47
2018-01-28T08:43:55.970Z,85.61
2018-01-28T08:46:26.085Z,86.01
2018-01-28T08:48:56.301Z,86.02
2018-01-28T08:51:26.686Z,86.13
2018-01-28T08:53:56.691Z,86.36
2018-01-28T08:56:26.765Z,86.18
2018-01-28T08:58:57.206Z,85.87
2018-01-28T09:01:27.109Z,86.31
2018-01-28T09:03:57.117Z,85.67
2018-01-28T09:06:26.947Z,85.84
2018-01-28T09:08:56.738Z,85.87
2018-01-28T09:11:26.714Z,85.78
2018-01-28T09:13:56.641Z,85.65
2018-01-28T09:16:26.548Z,85.69
2018-01-28T09:18:56.545Z,85.36
2018-01-28T09:21:26.350Z,85.08
2018-01-28T09:23:56.301Z,85.07
2018-01-28T09:26:27.145Z,84.41
2018-01-28T09:28:57.973Z,84.99
2018-01-28T09:31:28.854Z,85.18
2018-01-28T09:33:58.729Z,85.13
2018-01-28T09:36:29.578Z,85.20
2018-01-28T09:39:00.305Z,84.86
2018-01-28T09:41:31.182Z,84.89
2018-01-28T09:44:01.115Z,84.94
2018-01-28T09:46:31.942Z,85.12
2018-01-28T09:49:02.180Z,85.01
2018-01-28T09:51:32.418Z,84.68
2018-01-28T09:54:02.955Z,84.31
2018-01-28T09:56:32.958Z,84.11
2018-01-28T09:59:02.993Z,83.89
2018-01-28T10:01:33.150Z,83.92
2018-01-28T10:04:03.129Z,83.67
2018-01-28T10:06:34.021Z,83.05
2018-01-28T10:09:04.110Z,82.60
2018-01-28T10:11:35.109Z,77.13
2018-01-28T10:14:05.046Z,74.50
2018-01-28T10:16:34.953Z,72.58
2018-01-28T10:19:04.853Z,69.93
2018-01-28T10:21:35.013Z,69.06
2018-01-28T10:24:05.859Z,67.35
2018-01-28T10:26:36.048Z,67.06
2018-01-28T10:29:06.068Z,66.75
2018-01-28T10:31:36.684Z,66.49
2018-01-28T10:34:06.725Z,68.07
2018-01-28T10:36:37.454Z,67.40
2018-01-28T10:39:08.134Z,67.53
2018-01-28T10:41:38.040Z,68.28
2018-01-28T10:44:07.893Z,70.95
2018-01-28T10:46:37.923Z,73.45
2018-01-28T10:49:07.757Z,75.01
2018-01-28T10:51:38.474Z,76.05
2018-01-28T10:54:08.464Z,76.59
2018-01-28T10:56:38.543Z,77.20
2018-01-28T10:59:08.437Z,77.92
2018-01-28T11:01:39.168Z,77.88
2018-01-28T11:04:09.840Z,78.14
2018-01-28T11:06:39.708Z,78.20
2018-01-28T11:09:09.612Z,77.80
2018-01-28T11:11:39.509Z,78.05
2018-01-28T11:14:09.916Z,77.95
2018-01-28T11:16:40.316Z,77.65
2018-01-28T11:19:10.353Z,77.47
2018-01-28T11:21:40.205Z,77.36
2018-01-28T11:24:10.080Z,77.15
2018-01-28T11:26:40.112Z,76.86
2018-01-28T11:29:10.220Z,76.56
2018-01-28T11:31:40.060Z,76.74
2018-01-28T11:34:10.033Z,76.49
2018-01-28T11:36:39.859Z,76.36
2018-01-28T11:39:09.876Z,76.15
2018-01-28T11:41:39.793Z,75.72
2018-01-28T11:44:09.800Z,75.75
2018-01-28T11:46:41.362Z,75.55
2018-01-28T11:49:11.237Z,75.17
2018-01-28T11:51:42.064Z,75.42
2018-01-28T11:54:11.958Z,75.14
2018-01-28T11:56:41.866Z,75.08
2018-01-28T11:59:11.712Z,74.52
2018-01-28T12:01:41.628Z,74.43
2018-01-28T12:04:11.541Z,74.71
2018-01-28T12:06:41.473Z,74.71
2018-01-28T12:09:12.082Z,74.44
2018-01-28T12:11:42.164Z,74.23
2018-01-28T12:14:12.174Z,74.24
2018-01-28T12:16:42.152Z,74.20
2018-01-28T12:19:12.769Z,73.60
2018-01-28T12:21:42.681Z,73.73
2018-01-28T12:24:12.730Z,73.86
2018-01-28T12:26:43.397Z,73.86
2018-01-28T12:29:13.338Z,74.53
2018-01-28T12:31:43.574Z,74.41
2018-01-28T12:34:13.744Z,74.16
2018-01-28T12:36:43.661Z,74.26
2018-01-28T12:39:14.309Z,74.29
2018-01-28T12:41:44.244Z,74.26
2018-01-28T12:44:14.079Z,73.40
2018-01-28T12:46:44.065Z,74.10
2018-01-28T12:49:14.655Z,74.83
2018-01-28T12:51:45.262Z,75.29
2018-01-28T12:54:15.843Z,75.46
2018-01-28T12:56:45.665Z,75.41
2018-01-28T12:59:15.662Z,75.46
2018-01-28T13:01:45.505Z,75.26
2018-01-28T13:04:15.494Z,74.75
2018-01-28T13:06:45.434Z,75.06
2018-01-28T13:09:16.374Z,74.90
2018-01-28T13:11:46.394Z,74.39
2018-01-28T13:14:16.344Z,74.55
2018-01-28T13:16:46.321Z,74.78
2018-01-28T13:19:16.257Z,74.63
2018-01-28T13:21:47.168Z,74.31
2018-01-28T13:24:17.339Z,74.58
2018-01-28T13:26:47.337Z,74.79
2018-01-28T13:29:18.153Z,75.45
2018-01-28T13:31:48.589Z,76.06
2018-01-28T13:34:19.459Z,76.39
2018-01-28T13:36:49.498Z,76.18
2018-01-28T13:39:19.959Z,80.22
2018-01-28T13:41:50.566Z,75.21
2018-01-28T13:44:21.069Z,74.97
2018-01-28T13:46:51.608Z,75.98
2018-01-28T13:49:21.609Z,71.48
2018-01-28T13:51:51.566Z,72.64
2018-01-28T13:54:21.545Z,73.32
2018-01-28T13:56:51.430Z,73.93
2018-01-28T13:59:22.149Z,74.42
2018-01-28T14:01:52.206Z,74.67
2018-01-28T14:04:22.460Z,74.58
2018-01-28T14:06:52.534Z,74.50
2018-01-28T14:09:23.208Z,74.53
2018-01-28T14:11:53.411Z,74.45
2018-01-28T14:14:23.527Z,74.70
2018-01-28T14:16:53.374Z,74.67
2018-01-28T14:19:23.550Z,74.20
2018-01-28T14:21:54.073Z,74.16
2018-01-28T14:24:24.848Z,74.12
2018-01-28T14:26:54.997Z,73.99
2018-01-28T14:29:24.902Z,73.76
2018-01-28T14:31:54.822Z,73.84
2018-01-28T14:34:24.708Z,73.70
2018-01-28T14:36:54.740Z,73.54
2018-01-28T14:39:24.706Z,73.25
2018-01-28T14:41:55.312Z,73.19
2018-01-28T14:44:25.542Z,73.14
2018-01-28T14:46:55.696Z,73.35
2018-01-28T14:49:26.475Z,73.30
2018-01-28T14:51:56.473Z,73.43
2018-01-28T14:54:26.627Z,73.57
2018-01-28T14:56:56.634Z,73.40
2018-01-28T14:59:26.779Z,73.37
2018-01-28T15:01:58.268Z,73.42
2018-01-28T15:04:28.242Z,73.75
2018-01-28T15:06:58.921Z,73.47
2018-01-28T15:09:28.936Z,73.22
2018-01-28T15:11:58.812Z,73.44
2018-01-28T15:14:29.912Z,73.42
2018-01-28T15:16:59.860Z,73.34
2018-01-28T15:19:30.001Z,73.43
2018-01-28T15:22:00.173Z,73.68
2018-01-28T15:24:30.939Z,73.66
2018-01-28T15:27:00.845Z,73.02
2018-01-28T15:29:31.318Z,73.24
2018-01-28T15:32:01.673Z,73.35
2018-01-28T15:34:33.121Z,73.26
2018-01-28T15:37:03.811Z,73.48
2018-01-28T15:39:33.964Z,73.77
2018-01-28T15:42:05.282Z,73.34
2018-01-28T15:44:35.263Z,73.47
2018-01-28T15:47:05.353Z,73.53
2018-01-28T15:49:35.260Z,73.67
2018-01-28T15:52:05.155Z,73.64
2018-01-28T15:54:35.458Z,74.84
2018-01-28T15:57:05.314Z,72.89
2018-01-28T15:59:37.983Z,72.22
2018-01-28T16:02:08.586Z,72.56
2018-01-28T16:04:39.226Z,72.58
2018-01-28T16:07:09.875Z,72.79
2018-01-28T16:09:40.694Z,72.43
2018-01-28T16:12:10.870Z,72.80
2018-01-28T16:14:40.889Z,72.76
2018-01-28T16:17:11.588Z,72.46
2018-01-28T16:19:41.825Z,72.66
2018-01-28T16:22:11.752Z,72.61
2018-01-28T16:24:41.788Z,73.08
2018-01-28T16:27:12.634Z,73.51
2018-01-28T16:29:43.490Z,73.34
2018-01-28T16:32:13.839Z,72.99
2018-01-28T16:34:43.717Z,73.01
2018-01-28T16:37:13.880Z,73.08
2018-01-28T16:39:43.750Z,73.15
2018-01-28T16:42:14.187Z,73.61
2018-01-28T16:44:45.162Z,73.81
2018-01-28T16:47:15.165Z,73.49
2018-01-28T16:49:45.051Z,73.12
2018-01-28T16:52:16.224Z,73.29
2018-01-28T16:54:46.401Z,73.72
2018-01-28T16:57:17.409Z,73.78
2018-01-28T16:59:47.316Z,74.02
2018-01-28T17:02:17.304Z,74.10
2018-01-28T17:04:48.156Z,74.85
2018-01-28T17:07:19.099Z,74.73
2018-01-28T17:09:50.238Z,74.58
2018-01-28T17:12:20.961Z,74.55
2018-01-28T17:14:51.067Z,74.71
2018-01-28T17:17:21.049Z,75.16
2018-01-28T17:19:51.057Z,76.39
2018-01-28T17:22:21.205Z,77.02
2018-01-28T17:24:51.624Z,77.54
2018-01-28T17:27:21.571Z,77.80
2018-01-28T17:29:51.964Z,78.12
2018-01-28T17:32:21.985Z,78.20
2018-01-28T17:34:52.448Z,78.52
2018-01-28T17:37:22.408Z,78.53
2018-01-28T17:39:52.507Z,79.29
2018-01-28T17:42:22.456Z,79.78
2018-01-28T17:44:52.387Z,79.99
2018-01-28T17:47:22.555Z,80.01
2018-01-28T17:49:52.748Z,80.01
2018-01-28T17:52:22.545Z,80.07
2018-01-28T17:54:52.352Z,80.02
2018-01-28T17:57:23.358Z,80.24
2018-01-28T17:59:53.194Z,80.54
2018-01-28T18:02:24.070Z,80.70
2018-01-28T18:04:53.956Z,80.54
2018-01-28T18:07:25.770Z,80.71
2018-01-28T18:09:55.629Z,80.70
2018-01-28T18:12:25.554Z,80.42
2018-01-28T18:14:56.515Z,80.60
2018-01-28T18:17:28.381Z,80.45
2018-01-28T18:19:58.412Z,80.42
2018-01-28T18:22:28.346Z,80.10
2018-01-28T18:24:58.655Z,80.08
2018-01-28T18:27:28.582Z,80.14
2018-01-28T18:29:58.678Z,80.18
2018-01-28T18:32:28.507Z,79.94
2018-01-28T18:34:58.630Z,80.32
2018-01-28T18:37:28.439Z,80.31
2018-01-28T18:39:58.350Z,80.30
2018-01-28T18:42:28.258Z,80.44
2018-01-28T18:44:58.063Z,80.27
2018-01-28T18:47:28.332Z,80.50
2018-01-28T18:49:59.166Z,80.32
2018-01-28T18:52:29.368Z,80.47
2018-01-28T18:54:59.386Z,80.42
2018-01-28T18:57:29.272Z,80.47
2018-01-28T18:59:59.094Z,80.41
2018-01-28T19:02:29.106Z,80.33
2018-01-28T19:04:58.963Z,80.23
2018-01-28T19:07:28.898Z,80.44
2018-01-28T19:09:58.890Z,80.40
2018-01-28T19:12:28.828Z,80.42
2018-01-28T19:14:58.700Z,80.62
2018-01-28T19:17:29.414Z,80.55
2018-01-28T19:19:59.688Z,80.13
2018-01-28T19:22:29.701Z,79.80
2018-01-28T19:25:00.985Z,79.67
2018-01-28T19:27:31.183Z,79.61
2018-01-28T19:30:01.189Z,79.69
2018-01-28T19:32:31.214Z,79.67
2018-01-28T19:35:01.240Z,79.48
2018-01-28T19:37:31.468Z,79.69
2018-01-28T19:40:03.178Z,79.54
2018-01-28T19:42:33.121Z,79.47
2018-01-28T19:45:03.901Z,79.39
2018-01-28T19:47:33.886Z,79.37
2018-01-28T19:50:05.087Z,79.24
2018-01-28T19:52:35.097Z,79.32
2018-01-28T19:55:05.627Z,79.31
2018-01-28T19:57:35.536Z,79.11
2018-01-28T20:00:06.291Z,79.21
2018-01-28T20:02:36.668Z,79.31
2018-01-28T20:05:06.606Z,79.24
2018-01-28T20:07:37.625Z,79.21
2018-01-28T20:10:07.659Z,78.85
2018-01-28T20:12:38.214Z,78.77
2018-01-28T20:15:08.305Z,78.37
2018-01-28T20:17:39.559Z,78.48
2018-01-28T20:20:10.674Z,78.50
2018-01-28T20:22:41.127Z,78.56
2018-01-28T20:25:12.371Z,78.14
2018-01-28T20:27:42.781Z,78.12
2018-01-28T20:30:13.660Z,78.07
2018-01-28T20:32:44.236Z,78.07
2018-01-28T20:35:14.953Z,77.64
2018-01-28T20:37:45.331Z,77.62
2018-01-28T20:40:16.628Z,77.78
2018-01-28T20:42:46.861Z,77.79
2018-01-28T20:45:16.882Z,77.87
2018-01-28T20:47:46.914Z,78.00
2018-01-28T20:50:17.070Z,77.76
2018-01-28T20:52:48.164Z,77.64
2018-01-28T20:55:18.423Z,77.79
2018-01-28T20:57:49.430Z,77.85
2018-01-28T21:00:19.833Z,77.51
2018-01-28T21:02:52.633Z,77.11
2018-01-28T21:05:23.104Z,77.08
2018-01-28T21:07:53.831Z,77.09
2018-01-28T21:10:24.286Z,77.18
2018-01-28T21:12:54.659Z,76.96
2018-01-28T21:15:25.455Z,76.72
2018-01-28T21:17:55.837Z,76.90
2018-01-28T21:20:26.673Z,76.76
2018-01-28T21:22:56.936Z,76.50
2018-01-28T21:25:28.119Z,76.75
2018-01-28T21:27:58.677Z,76.64
2018-01-28T21:30:29.189Z,77.01
2018-01-28T21:32:59.415Z,76.81
2018-01-28T21:35:29.681Z,76.92
2018-01-28T21:38:00.725Z,76.80
2018-01-28T21:40:31.918Z,76.87
2018-01-28T21:43:02.160Z,77.00
2018-01-28T21:45:32.319Z,77.11
2018-01-28T21:48:03.264Z,77.06
2018-01-28T21:50:34.044Z,76.70
2018-01-28T21:53:04.244Z,76.91
2018-01-28T21:55:34.581Z,76.93
2018-01-28T21:58:05.231Z,77.00
2018-01-28T22:00:35.593Z,77.25
2018-01-28T22:03:06.088Z,77.11
2018-01-28T22:05:36.308Z,77.20
2018-01-28T22:08:06.731Z,76.80
2018-01-28T22:10:36.973Z,76.82
2018-01-28T22:13:07.586Z,77.15
2018-01-28T22:15:38.543Z,77.14
2018-01-28T22:18:08.889Z,77.17
2018-01-28T22:20:39.479Z,77.41
2018-01-28T22:23:09.673Z,77.51
2018-01-28T22:25:39.910Z,77.54
2018-01-28T22:28:11.199Z,77.43
2018-01-28T22:30:41.375Z,77.37
2018-01-28T22:33:11.420Z,77.45
2018-01-28T22:35:41.412Z,77.60
2018-01-28T22:38:11.882Z,77.49
2018-01-28T22:40:42.514Z,77.51
2018-01-28T22:43:13.429Z,77.52
2018-01-28T22:45:43.871Z,77.80
2018-01-28T22:48:14.093Z,78.25
2018-01-28T22:50:44.734Z,77.93
2018-01-28T22:53:15.111Z,78.14
2018-01-28T22:55:45.633Z,77.93
2018-01-28T22:58:16.558Z,78.18
2018-01-28T23:00:47.611Z,78.46
2018-01-28T23:03:18.813Z,78.87
2018-01-28T23:05:49.279Z,78.95
2018-01-28T23:08:20.714Z,79.20
2018-01-28T23:10:51.905Z,79.63
2018-01-28T23:13:22.585Z,79.95
2018-01-28T23:15:53.687Z,80.32
2018-01-28T23:18:24.484Z,80.75
2018-01-28T23:20:54.706Z,81.09
2018-01-28T23:23:25.741Z,81.05
2018-01-28T23:25:56.097Z,81.29
2018-01-28T23:28:26.688Z,81.42
2018-01-28T23:30:57.175Z,81.46
2018-01-28T23:33:27.904Z,81.72
2018-01-28T23:35:58.323Z,81.48
2018-01-28T23:38:28.656Z,81.64
2018-01-28T23:40:59.081Z,81.71
2018-01-28T23:43:29.354Z,81.92
2018-01-28T23:45:59.746Z,82.40
2018-01-28T23:48:30.067Z,82.40
2018-01-28T23:51:00.287Z,83.14
2018-01-28T23:53:30.751Z,83.22
2018-01-28T23:56:00.835Z,83.32
2018-01-28T23:58:31.054Z,83.46
